Time;durP1;ratioP1;P1;durP2;ratioP2;P2;SDS_P1;SDS_P2;PMS_P1;PMS_P2;Temp;Humidity;BMP_temperature;BMP_pressure;BME280_temperature;BME280_humidity;BME280_pressure;Samples;Min_cycle;Max_cycle;Signal;HPM_P1;HPM_P2
2023/05/08 00:00:04;;;;;;;5.15;2.67;;;22.10;69.70;;;;;;4952765;28;86387;-88
2023/05/08 00:02:30;;;;;;;4.25;2.40;;;22.10;69.70;;;;;;4950981;28;85793;-88
2023/05/08 00:04:56;;;;;;;4.60;2.90;;;22.10;70.10;;;;;;4950298;28;89874;-89
2023/05/08 00:07:22;;;;;;;3.58;2.53;;;22.10;69.70;;;;;;4941900;28;86400;-88
2023/05/08 00:09:47;;;;;;;4.78;2.78;;;22.10;70.70;;;;;;4935157;28;85912;-89
2023/05/08 00:12:13;;;;;;;4.82;2.47;;;22.10;70.10;;;;;;4950365;28;85993;-88
2023/05/08 00:14:39;;;;;;;4.05;2.60;;;22.00;69.90;;;;;;4950244;28;90787;-89
2023/05/08 00:17:05;;;;;;;5.75;2.70;;;22.10;70.10;;;;;;4952090;28;86904;-88
2023/05/08 00:19:30;;;;;;;4.78;2.70;;;22.10;70.10;;;;;;4931882;28;85694;-88
2023/05/08 00:21:56;;;;;;;3.88;2.08;;;22.00;69.80;;;;;;4933419;28;85970;-88
2023/05/08 00:24:22;;;;;;;4.05;2.40;;;22.10;69.90;;;;;;4950876;28;86042;-89
2023/05/08 00:26:48;;;;;;;3.47;2.47;;;22.10;70.10;;;;;;4949756;28;89173;-89
2023/05/08 00:29:13;;;;;;;3.90;2.45;;;22.00;70.00;;;;;;4949020;28;86167;-88
2023/05/08 00:31:39;;;;;;;4.88;2.85;;;22.00;69.90;;;;;;4932202;28;85586;-88
2023/05/08 00:34:05;;;;;;;4.30;2.40;;;22.00;69.90;;;;;;4931689;28;89334;-89
2023/05/08 00:36:31;;;;;;;4.95;2.70;;;22.00;70.20;;;;;;4949385;28;86918;-88
2023/05/08 00:38:56;;;;;;;4.40;2.55;;;22.00;70.00;;;;;;4949410;28;86873;-89
2023/05/08 00:41:22;;;;;;;5.55;2.53;;;22.00;69.90;;;;;;4932833;28;86328;-88
2023/05/08 00:43:48;;;;;;;3.55;2.42;;;22.00;70.10;;;;;;4948198;28;90590;-89
2023/05/08 00:46:13;;;;;;;3.80;2.25;;;22.00;70.00;;;;;;4947399;28;86021;-89
2023/05/08 00:48:42;;;;;;;4.88;2.72;;;22.00;70.10;;;;;;4938757;28;85884;-87
2023/05/08 00:51:10;;;;;;;3.93;2.17;;;22.00;70.00;;;;;;4954664;28;85730;-88
2023/05/08 00:53:41;;;;;;;3.72;2.20;;;22.00;70.80;;;;;;4953259;28;85976;-88
2023/05/08 00:56:11;;;;;;;3.63;2.08;;;21.90;70.00;;;;;;4935354;28;89857;-86
2023/05/08 00:58:38;;;;;;;4.47;2.50;;;22.00;70.20;;;;;;4935214;28;85663;-89
2023/05/08 01:01:04;;;;;;;5.28;2.70;;;21.90;70.00;;;;;;4936337;28;86302;-88
2023/05/08 01:03:32;;;;;;;3.50;2.20;;;21.90;69.90;;;;;;4933899;28;88811;-88
2023/05/08 01:05:58;;;;;;;4.72;2.63;;;21.90;70.00;;;;;;4952985;28;86354;-88
2023/05/08 01:08:24;;;;;;;3.25;2.33;;;21.90;70.00;;;;;;4954155;28;86107;-88
2023/05/08 01:10:52;;;;;;;3.38;2.55;;;21.90;70.10;;;;;;4953936;28;86337;-88
2023/05/08 01:13:55;;;;;;;4.93;2.50;;;21.90;69.90;;;;;;4951147;28;89121;-89
2023/05/08 01:16:49;;;;;;;5.85;2.50;;;21.90;69.90;;;;;;4951525;28;87486;-89
2023/05/08 01:19:47;;;;;;;5.00;2.45;;;21.90;70.10;;;;;;4949807;28;85761;-87
2023/05/08 01:22:38;;;;;;;3.10;2.08;;;21.90;70.00;;;;;;4950395;28;86085;-88
2023/05/08 01:25:22;;;;;;;4.40;2.20;;;21.90;70.10;;;;;;4953687;28;87216;-89
2023/05/08 01:28:00;;;;;;;5.65;2.60;;;21.90;69.90;;;;;;4953787;28;87050;-89
2023/05/08 01:30:59;;;;;;;4.18;2.47;;;21.90;70.00;;;;;;4953963;28;86052;-88
2023/05/08 01:33:57;;;;;;;3.58;2.40;;;21.90;69.90;;;;;;4942618;28;86537;-88
2023/05/08 01:36:49;;;;;;;3.05;2.00;;;21.90;69.90;;;;;;4920714;28;86274;-88
2023/05/08 01:39:43;;;;;;;3.47;2.00;;;21.90;69.70;;;;;;4944818;28;86966;-89
2023/05/08 01:42:21;;;;;;;3.65;2.38;;;21.80;69.70;;;;;;4953935;28;87483;-87
2023/05/08 01:44:53;;;;;;;5.15;2.70;;;21.80;69.70;;;;;;4954713;28;85903;-88
2023/05/08 01:47:25;;;;;;;4.70;2.53;;;21.80;69.70;;;;;;4953830;28;87279;-88
2023/05/08 01:50:03;;;;;;;5.35;2.50;;;21.80;69.80;;;;;;4954504;28;86323;-88
2023/05/08 01:52:36;;;;;;;6.57;2.42;;;21.80;69.80;;;;;;4954207;28;86351;-89
2023/05/08 01:55:16;;;;;;;4.57;2.50;;;21.80;69.60;;;;;;4952425;28;86256;-88
2023/05/08 01:57:47;;;;;;;5.22;2.38;;;21.80;69.90;;;;;;4953864;28;87197;-88
2023/05/08 02:00:17;;;;;;;3.08;2.25;;;21.80;69.70;;;;;;4954158;28;85621;-88
2023/05/08 02:02:43;;;;;;;4.97;2.63;;;21.80;69.80;;;;;;4935076;28;85784;-88
2023/05/08 02:05:11;;;;;;;3.75;2.30;;;21.80;69.70;;;;;;4936144;28;86258;-88
2023/05/08 02:07:38;;;;;;;3.35;2.28;;;21.80;70.50;;;;;;4935923;28;89529;-87
2023/05/08 02:10:06;;;;;;;3.20;2.13;;;21.80;69.80;;;;;;4951582;28;85987;-88
2023/05/08 02:12:33;;;;;;;4.97;2.40;;;21.80;69.80;;;;;;4937364;28;86184;-88
2023/05/08 02:15:01;;;;;;;5.68;2.75;;;21.80;69.80;;;;;;4936962;28;86120;-89
2023/05/08 02:17:28;;;;;;;4.40;2.15;;;21.80;69.70;;;;;;4937237;28;89349;-89
2023/05/08 02:19:56;;;;;;;2.45;1.85;;;21.80;69.80;;;;;;4952521;28;88371;-88
2023/05/08 02:22:23;;;;;;;4.05;2.22;;;21.80;69.70;;;;;;4936991;28;86084;-88
2023/05/08 02:24:54;;;;;;;3.65;2.05;;;21.80;69.80;;;;;;4954743;28;86124;-88
2023/05/08 02:27:22;;;;;;;4.20;2.53;;;21.80;69.90;;;;;;4950828;28;86976;-89
2023/05/08 02:29:50;;;;;;;3.47;2.22;;;21.70;69.70;;;;;;4938087;28;91985;-88
2023/05/08 02:32:17;;;;;;;4.07;2.50;;;21.70;69.70;;;;;;4943813;28;86084;-88
2023/05/08 02:34:44;;;;;;;4.07;2.30;;;21.70;69.80;;;;;;4936472;28;85684;-89
2023/05/08 02:37:11;;;;;;;3.65;2.30;;;21.80;69.80;;;;;;4936174;28;88343;-88
2023/05/08 02:39:39;;;;;;;3.92;2.25;;;21.80;69.80;;;;;;4954521;28;86151;-88
2023/05/08 02:42:05;;;;;;;5.03;2.60;;;21.80;69.80;;;;;;4951407;28;86020;-88
2023/05/08 02:44:31;;;;;;;2.97;2.40;;;21.70;69.80;;;;;;4933935;28;85713;-89
2023/05/08 02:47:20;;;;;;;5.40;2.35;;;21.70;69.80;;;;;;4957519;28;87219;-87
2023/05/08 02:50:01;;;;;;;3.95;2.20;;;21.70;69.70;;;;;;4937056;28;88784;-89
2023/05/08 02:52:31;;;;;;;3.08;2.40;;;21.70;69.80;;;;;;4943938;28;85835;-88
2023/05/08 02:55:05;;;;;;;2.50;1.92;;;21.70;69.80;;;;;;4954485;28;85808;-88
2023/05/08 02:57:43;;;;;;;3.05;2.00;;;21.70;69.70;;;;;;4956030;28;86492;-87
2023/05/08 03:00:12;;;;;;;3.15;2.08;;;21.70;69.80;;;;;;4937312;28;87459;-88
2023/05/08 03:02:42;;;;;;;3.58;2.25;;;21.70;69.80;;;;;;4949841;28;85944;-88
2023/05/08 03:05:24;;;;;;;3.45;2.30;;;21.70;69.80;;;;;;4949572;28;86364;-88
2023/05/08 03:07:53;;;;;;;2.75;2.33;;;21.70;69.80;;;;;;4949855;28;87624;-87
2023/05/08 03:10:23;;;;;;;3.67;2.30;;;21.70;69.80;;;;;;4949123;28;88926;-87
2023/05/08 03:12:52;;;;;;;4.22;2.50;;;21.70;69.70;;;;;;4950432;28;86778;-88
2023/05/08 03:15:26;;;;;;;2.90;2.28;;;21.70;69.80;;;;;;4952852;28;86122;-88
2023/05/08 03:17:56;;;;;;;3.00;1.95;;;21.70;70.00;;;;;;4952736;28;90048;-88
2023/05/08 03:20:25;;;;;;;2.75;2.13;;;21.70;69.90;;;;;;4949534;28;86908;-89
2023/05/08 03:22:53;;;;;;;4.72;2.17;;;21.70;69.70;;;;;;4950366;28;85993;-89
2023/05/08 03:25:20;;;;;;;3.63;2.30;;;21.70;69.60;;;;;;4940020;28;86267;-88
2023/05/08 03:27:47;;;;;;;3.58;1.92;;;21.70;69.80;;;;;;4949809;28;85983;-88
2023/05/08 03:30:15;;;;;;;3.67;2.22;;;21.70;69.90;;;;;;4951235;28;87362;-89
2023/05/08 03:32:45;;;;;;;2.38;2.10;;;21.70;69.70;;;;;;4935895;28;85664;-89
2023/05/08 03:35:10;;;;;;;;;;;21.70;69.70;;;;;;4950718;28;85731;-88
2023/05/08 03:37:37;;;;;;;3.50;2.28;;;21.70;69.70;;;;;;4952057;28;87260;-88
2023/05/08 03:40:03;;;;;;;3.38;1.92;;;21.60;69.80;;;;;;4933934;28;88222;-88
2023/05/08 03:42:30;;;;;;;2.55;2.05;;;21.60;69.60;;;;;;4933163;28;85640;-88
2023/05/08 03:44:56;;;;;;;2.75;1.88;;;21.60;69.60;;;;;;4933375;28;86303;-89
2023/05/08 03:47:25;;;;;;;2.83;2.25;;;21.60;69.50;;;;;;4951120;28;87358;-88
2023/05/08 03:49:51;;;;;;;3.60;2.20;;;21.60;69.50;;;;;;4941126;28;88915;-89
2023/05/08 03:52:17;;;;;;;2.70;2.00;;;21.60;70.30;;;;;;4951210;28;86321;-88
2023/05/08 03:54:43;;;;;;;2.78;2.10;;;21.60;69.50;;;;;;4934390;28;85983;-88
2023/05/08 03:57:09;;;;;;;3.53;2.33;;;21.60;69.40;;;;;;4951436;28;86207;-88
2023/05/08 03:59:48;;;;;;;2.90;2.03;;;21.60;69.50;;;;;;4949606;28;86655;-88
2023/05/08 04:02:39;;;;;;;2.63;2.08;;;21.60;69.70;;;;;;4941579;28;87130;-89
2023/05/08 04:05:17;;;;;;;3.40;1.63;;;21.60;69.70;;;;;;4947581;28;85858;-88
2023/05/08 04:07:52;;;;;;;3.55;2.30;;;21.60;69.70;;;;;;4922400;28;90058;-89
2023/05/08 04:10:27;;;;;;;3.85;2.40;;;21.60;69.70;;;;;;4911948;28;88871;-87
2023/05/08 04:13:07;;;;;;;2.45;2.05;;;21.60;69.80;;;;;;4930804;28;86466;-88
2023/05/08 04:16:02;;;;;;;3.63;2.13;;;21.60;69.70;;;;;;4933372;28;86118;-89
2023/05/08 04:18:29;;;;;;;2.80;2.05;;;21.60;69.90;;;;;;4934038;28;88656;-89
2023/05/08 04:20:57;;;;;;;2.90;1.88;;;21.60;69.80;;;;;;4952547;28;89267;-88
2023/05/08 04:23:24;;;;;;;2.50;1.80;;;21.60;69.70;;;;;;4954306;28;86201;-89
2023/05/08 04:25:52;;;;;;;2.15;1.95;;;21.60;69.70;;;;;;4952939;28;86164;-88
2023/05/08 04:28:18;;;;;;;1.92;1.73;;;21.60;69.50;;;;;;4947470;28;87390;-88
2023/05/08 04:30:44;;;;;;;3.15;2.58;;;21.60;69.60;;;;;;4917716;28;90035;-88
2023/05/08 04:33:11;;;;;;;2.95;1.90;;;21.60;69.60;;;;;;4935508;28;86087;-88
2023/05/08 04:35:37;;;;;;;2.88;2.10;;;21.60;69.60;;;;;;4952322;28;85835;-88
2023/05/08 04:38:02;;;;;;;3.30;2.17;;;21.60;69.80;;;;;;4953881;28;86239;-87
2023/05/08 04:40:31;;;;;;;3.78;2.10;;;21.60;69.70;;;;;;4935497;28;87995;-88
2023/05/08 04:42:56;;;;;;;4.13;2.35;;;21.50;69.60;;;;;;4936380;28;86379;-88
2023/05/08 04:45:22;;;;;;;3.15;2.10;;;21.60;69.70;;;;;;4952674;28;86116;-87
2023/05/08 04:47:48;;;;;;;3.72;2.25;;;21.60;69.80;;;;;;4954763;28;86540;-88
2023/05/08 04:50:14;;;;;;;3.17;2.33;;;21.60;69.70;;;;;;4952322;28;87007;-88
2023/05/08 04:52:40;;;;;;;2.63;1.85;;;21.60;69.70;;;;;;4936263;28;87205;-88
2023/05/08 04:55:06;;;;;;;4.05;2.20;;;21.60;69.70;;;;;;4954975;28;86189;-88
2023/05/08 04:57:32;;;;;;;2.70;2.00;;;21.60;69.50;;;;;;4951717;28;86967;-88
2023/05/08 04:59:58;;;;;;;3.08;2.63;;;21.60;69.50;;;;;;4955034;28;86134;-88
2023/05/08 05:02:27;;;;;;;3.97;2.63;;;21.60;69.40;;;;;;4936612;28;86257;-89
2023/05/08 05:04:57;;;;;;;2.17;1.85;;;21.50;69.40;;;;;;4954607;28;86101;-87
2023/05/08 05:07:23;;;;;;;2.33;1.90;;;21.60;69.50;;;;;;4952340;28;87366;-88
2023/05/08 05:09:49;;;;;;;3.28;2.30;;;21.50;69.40;;;;;;4934884;28;88438;-88
2023/05/08 05:12:15;;;;;;;3.20;2.38;;;21.50;69.50;;;;;;4936572;28;86439;-89
2023/05/08 05:14:41;;;;;;;3.88;2.33;;;21.50;69.50;;;;;;4953041;28;86380;-88
2023/05/08 05:17:07;;;;;;;3.78;2.30;;;21.50;69.40;;;;;;4953965;28;86466;-89
2023/05/08 05:19:32;;;;;;;3.28;2.50;;;21.60;69.40;;;;;;4953477;28;86665;-88
2023/05/08 05:21:58;;;;;;;3.22;2.25;;;21.60;69.50;;;;;;4951048;28;85818;-88
2023/05/08 05:24:24;;;;;;;2.70;2.00;;;21.60;69.40;;;;;;4934690;28;85971;-88
2023/05/08 05:26:50;;;;;;;2.60;1.90;;;21.60;69.40;;;;;;4915909;28;89940;-88
2023/05/08 05:29:15;;;;;;;3.53;2.30;;;21.50;69.30;;;;;;4947473;28;88569;-88
2023/05/08 05:31:41;;;;;;;3.90;2.47;;;21.50;69.30;;;;;;4932445;28;86873;-88
2023/05/08 05:34:07;;;;;;;3.63;2.63;;;21.50;69.50;;;;;;4949426;28;85775;-88
2023/05/08 05:36:33;;;;;;;2.95;2.10;;;21.60;69.30;;;;;;4946294;28;90500;-88
2023/05/08 05:38:59;;;;;;;3.67;2.53;;;21.50;70.20;;;;;;4947577;28;89617;-87
2023/05/08 05:41:24;;;;;;;3.03;2.20;;;21.50;69.50;;;;;;4915292;28;86710;-88
2023/05/08 05:43:50;;;;;;;2.92;2.30;;;21.50;69.50;;;;;;4915144;28;85745;-89
2023/05/08 05:46:16;;;;;;;4.03;2.63;;;21.50;69.50;;;;;;4946121;28;88157;-88
2023/05/08 05:48:42;;;;;;;2.85;2.00;;;21.50;69.50;;;;;;4915152;28;89119;-87
2023/05/08 05:51:08;;;;;;;3.42;2.55;;;21.50;69.60;;;;;;4934230;28;86125;-87
2023/05/08 05:53:33;;;;;;;3.28;2.40;;;21.50;69.60;;;;;;4933468;28;85941;-88
2023/05/08 05:55:59;;;;;;;3.35;2.55;;;21.50;69.40;;;;;;4950022;28;89045;-87
2023/05/08 05:58:27;;;;;;;4.65;2.40;;;21.50;69.50;;;;;;4951419;28;86122;-89
2023/05/08 06:00:52;;;;;;;3.55;2.80;;;21.50;69.50;;;;;;4953879;28;86176;-88
2023/05/08 06:03:18;;;;;;;2.60;2.20;;;21.50;69.50;;;;;;4935959;28;86224;-87
2023/05/08 06:05:46;;;;;;;4.05;2.42;;;21.50;69.60;;;;;;4933856;28;89143;-88
2023/05/08 06:08:12;;;;;;;4.28;3.13;;;21.50;69.60;;;;;;4952913;28;87506;-89
2023/05/08 06:10:38;;;;;;;5.85;4.53;;;21.60;69.40;;;;;;4935547;28;85947;-90
2023/05/08 06:13:03;;;;;;;8.77;5.93;;;21.60;68.50;;;;;;4953638;28;86185;-93
2023/05/08 06:15:29;;;;;;;6.63;4.63;;;21.60;67.80;;;;;;4935398;28;88391;-88
2023/05/08 06:17:55;;;;;;;8.85;5.55;;;21.60;68.30;;;;;;4936734;28;88810;-92
2023/05/08 06:20:30;;;;;;;5.35;3.50;;;21.60;68.10;;;;;;4937751;28;85978;-90
2023/05/08 06:22:56;;;;;;;6.10;4.22;;;21.80;68.00;;;;;;4934700;28;89078;-91
2023/05/08 06:25:22;;;;;;;8.27;5.30;;;21.80;67.70;;;;;;4933046;28;89991;-88
2023/05/08 06:27:48;;;;;;;23.92;7.65;;;21.80;67.90;;;;;;4952489;28;86798;-87
2023/05/08 06:30:14;;;;;;;27.20;8.82;;;21.80;67.70;;;;;;4952966;28;85650;-91
2023/05/08 06:32:39;;;;;;;24.00;8.82;;;21.80;67.90;;;;;;4933461;28;86478;-88
2023/05/08 06:35:06;;;;;;;22.85;9.77;;;21.80;68.60;;;;;;4934839;28;88430;-89
2023/05/08 06:37:40;;;;;;;22.08;10.02;;;21.80;68.90;;;;;;4951410;28;87350;-88
2023/05/08 06:40:06;;;;;;;25.77;10.38;;;21.70;69.20;;;;;;4952478;28;86079;-90
2023/05/08 06:42:32;;;;;;;25.25;10.20;;;21.70;69.60;;;;;;4933968;28;88037;-91
2023/05/08 06:44:58;;;;;;;30.15;11.38;;;21.70;69.70;;;;;;4935403;28;89543;-91
2023/05/08 06:47:24;;;;;;;35.95;11.48;;;21.70;69.80;;;;;;4926333;28;89497;-92
2023/05/08 06:49:49;;;;;;;31.17;12.40;;;21.70;70.10;;;;;;4934546;28;86137;-91
2023/05/08 06:52:15;;;;;;;26.77;11.65;;;21.80;70.00;;;;;;4930596;28;85794;-90
2023/05/08 06:54:41;;;;;;;24.70;11.60;;;21.80;69.60;;;;;;4952377;28;87227;-93
2023/05/08 06:57:07;;;;;;;23.17;10.63;;;21.90;69.20;;;;;;4935042;28;89454;-90
2023/05/08 06:59:33;;;;;;;25.92;12.25;;;21.80;69.30;;;;;;4933320;28;86868;-91
2023/05/08 07:01:59;;;;;;;30.70;13.93;;;21.80;69.50;;;;;;4924247;28;85839;-93
2023/05/08 07:04:25;;;;;;;29.75;14.02;;;21.70;69.60;;;;;;4933027;28;90306;-91
2023/05/08 07:06:51;;;;;;;24.13;13.88;;;21.70;69.80;;;;;;4937515;28;88280;-90
2023/05/08 07:09:16;;;;;;;29.70;14.98;;;21.60;69.90;;;;;;4937572;28;86102;-91
2023/05/08 07:11:52;;;;;;;;;;;;;;;;;;;;;
2023/05/08 07:14:18;;;;;;;25.83;13.93;;;21.60;70.20;;;;;;4951857;28;89302;-90
2023/05/08 07:16:47;;;;;;;30.83;15.93;;;21.60;69.90;;;;;;4926425;28;87269;-92
2023/05/08 07:19:12;;;;;;;29.33;15.68;;;21.60;70.00;;;;;;4935502;28;86150;-91
2023/05/08 07:21:38;;;;;;;29.75;15.68;;;21.50;69.80;;;;;;4933643;28;86074;-89
2023/05/08 07:24:05;;;;;;;23.50;14.38;;;21.60;69.90;;;;;;4933923;28;90026;-93
2023/05/08 07:26:33;;;;;;;29.50;16.67;;;21.70;69.50;;;;;;4950025;28;91129;-93
2023/05/08 07:28:59;;;;;;;30.58;16.50;;;21.70;69.50;;;;;;4951411;28;87383;-93
2023/05/08 07:31:25;;;;;;;28.95;16.35;;;21.70;69.50;;;;;;4925701;28;85985;-91
2023/05/08 07:33:51;;;;;;;32.85;16.60;;;21.80;68.80;;;;;;4932528;28;88900;-92
2023/05/08 07:36:17;;;;;;;25.10;14.90;;;21.70;69.00;;;;;;4951705;28;89593;-91
2023/05/08 07:38:43;;;;;;;25.20;15.15;;;21.70;69.00;;;;;;4934793;28;85970;-92
2023/05/08 07:41:08;;;;;;;37.75;17.15;;;21.60;69.20;;;;;;4933830;28;87064;-91
2023/05/08 07:43:34;;;;;;;42.85;19.60;;;21.70;69.20;;;;;;4932545;28;89173;-94
2023/05/08 07:46:03;;;;;;;43.33;18.83;;;21.70;69.40;;;;;;4933334;28;88846;-92
2023/05/08 07:48:29;;;;;;;46.63;20.45;;;21.70;69.40;;;;;;4937142;28;86061;-92
2023/05/08 07:50:55;;;;;;;42.88;20.77;;;21.70;69.40;;;;;;4932588;28;86908;-93
2023/05/08 07:53:21;;;;;;;44.83;20.20;;;21.60;69.20;;;;;;4932023;28;89624;-96
2023/05/08 07:55:46;;;;;;;44.83;21.40;;;21.60;69.20;;;;;;4935091;28;89747;-94
2023/05/08 07:58:12;;;;;;;48.22;22.67;;;21.60;69.20;;;;;;4953809;28;87168;-94
2023/05/08 08:00:40;;;;;;;46.40;20.80;;;21.70;69.50;;;;;;4939700;28;85669;-94
2023/05/08 08:03:06;;;;;;;46.83;22.95;;;21.70;69.40;;;;;;4952630;28;89106;-93
2023/05/08 08:05:34;;;;;;;48.28;22.60;;;21.70;69.90;;;;;;4935281;28;85816;-94
2023/05/08 08:08:00;;;;;;;49.90;24.05;;;21.70;70.60;;;;;;4936969;28;86135;-95
2023/05/08 08:10:26;;;;;;;49.20;22.40;;;21.70;71.00;;;;;;4958460;28;85829;-96
2023/05/08 08:12:51;;;;;;;47.47;22.92;;;21.70;71.50;;;;;;4915720;28;89233;-94
2023/05/08 08:15:17;;;;;;;45.00;22.92;;;21.70;72.20;;;;;;4935356;28;88850;-95
2023/05/08 08:17:43;;;;;;;50.35;23.15;;;21.80;69.40;;;;;;4913917;28;85716;-93
2023/05/08 08:20:09;;;;;;;49.58;24.10;;;21.80;70.20;;;;;;4917013;28;85902;-94
2023/05/08 08:22:36;;;;;;;54.75;22.90;;;21.80;70.80;;;;;;4914392;28;89319;-91
2023/05/08 08:25:02;;;;;;;47.35;22.95;;;21.80;71.30;;;;;;4916963;28;89691;-92
2023/05/08 08:27:28;;;;;;;46.65;23.75;;;21.80;71.40;;;;;;4934861;28;86403;-88
2023/05/08 08:29:54;;;;;;;45.88;22.75;;;21.80;72.00;;;;;;4951219;28;85796;-91
2023/05/08 08:32:22;;;;;;;47.17;22.65;;;21.80;72.00;;;;;;4935264;28;89303;-92
2023/05/08 08:34:48;;;;;;;49.33;22.60;;;21.80;71.90;;;;;;4928651;28;87440;-89
2023/05/08 08:37:14;;;;;;;50.00;23.95;;;21.90;72.00;;;;;;4933759;28;86683;-94
2023/05/08 08:39:39;;;;;;;45.08;23.70;;;21.90;71.60;;;;;;4933453;28;86169;-91
2023/05/08 08:42:05;;;;;;;44.42;22.27;;;21.90;71.70;;;;;;4932831;28;90304;-92
2023/05/08 08:44:31;;;;;;;47.80;21.92;;;21.90;71.50;;;;;;4930813;28;88552;-94
2023/05/08 08:46:59;;;;;;;62.05;26.45;;;21.80;71.50;;;;;;4937805;28;86913;-92
2023/05/08 08:49:30;;;;;;;68.22;28.52;;;21.80;71.80;;;;;;4945672;28;85770;-92
2023/05/08 08:52:09;;;;;;;69.88;29.35;;;21.80;71.70;;;;;;4951656;28;89288;-92
2023/05/08 08:54:36;;;;;;;65.43;28.40;;;21.80;71.50;;;;;;4943158;28;88757;-93
2023/05/08 08:57:07;;;;;;;57.45;27.60;;;21.70;71.70;;;;;;4934234;28;86185;-91
2023/05/08 08:59:38;;;;;;;67.93;29.15;;;21.80;71.90;;;;;;4935915;28;85896;-93
2023/05/08 09:02:13;;;;;;;60.20;28.38;;;21.80;71.90;;;;;;4938289;28;89138;-92
2023/05/08 09:04:39;;;;;;;56.90;28.65;;;21.80;71.70;;;;;;4951005;28;87832;-93
2023/05/08 09:07:07;;;;;;;57.58;28.52;;;21.80;71.80;;;;;;4934571;28;86445;-91
2023/05/08 09:09:36;;;;;;;59.50;30.13;;;21.80;71.40;;;;;;4938226;28;87111;-94
2023/05/08 09:12:02;;;;;;;56.33;30.65;;;21.80;71.40;;;;;;4946445;28;90166;-94
2023/05/08 09:14:28;;;;;;;61.75;31.25;;;21.80;71.40;;;;;;4938799;28;88993;-93
2023/05/08 09:16:54;;;;;;;59.35;31.52;;;21.70;71.40;;;;;;4937451;28;85917;-93
2023/05/08 09:19:20;;;;;;;61.05;32.05;;;21.80;71.10;;;;;;4935989;28;85586;-93
2023/05/08 09:21:48;;;;;;;88.80;38.33;;;21.80;71.20;;;;;;4936394;28;88575;-92
2023/05/08 09:24:13;;;;;;;132.65;50.95;;;21.80;70.80;;;;;;4954968;28;89626;-95
2023/05/08 09:26:40;;;;;;;169.65;61.13;;;21.80;71.00;;;;;;4938569;28;86600;-91
2023/05/08 09:29:15;;;;;;;125.78;49.65;;;21.80;71.00;;;;;;4934769;28;86638;-90
2023/05/08 09:31:47;;;;;;;141.82;54.20;;;21.80;70.70;;;;;;4950934;28;88733;-90
2023/05/08 09:34:28;;;;;;;134.52;55.38;;;21.80;70.80;;;;;;4952763;28;88518;-92
2023/05/08 09:37:10;;;;;;;144.90;56.80;;;21.80;70.20;;;;;;4935867;28;93219;-92
2023/05/08 09:39:40;;;;;;;123.40;50.45;;;21.80;71.10;;;;;;4936772;28;86897;-91
2023/05/08 09:42:06;;;;;;;132.68;50.25;;;21.90;70.70;;;;;;4934756;28;89268;-92
2023/05/08 09:44:52;;;;;;;120.85;49.80;;;21.90;70.60;;;;;;4938176;28;88499;-94
2023/05/08 09:47:20;;;;;;;106.78;47.35;;;21.80;70.20;;;;;;4952715;28;90314;-93
2023/05/08 09:50:00;;;;;;;99.88;43.67;;;21.90;69.40;;;;;;4944395;28;86286;-91
2023/05/08 09:52:27;;;;;;;111.47;47.80;;;21.90;69.70;;;;;;4922019;28;90265;-92
2023/05/08 09:55:02;;;;;;;97.10;43.17;;;21.90;69.90;;;;;;4915251;28;89774;-91
2023/05/08 09:57:30;;;;;;;87.95;40.90;;;21.90;69.40;;;;;;4933091;28;86333;-94
2023/05/08 10:00:04;;;;;;;85.50;40.80;;;22.00;69.40;;;;;;4918040;28;85683;-92
2023/05/08 10:02:31;;;;;;;79.30;40.17;;;22.00;69.10;;;;;;4951547;28;89265;-90
2023/05/08 10:04:56;;;;;;;83.30;41.35;;;22.10;69.00;;;;;;4935410;28;88681;-89
2023/05/08 10:07:30;;;;;;;93.28;42.50;;;22.10;69.30;;;;;;4951569;28;86316;-91
2023/05/08 10:10:00;;;;;;;89.15;42.60;;;22.10;69.90;;;;;;4941642;28;87326;-90
2023/05/08 10:12:30;;;;;;;82.82;40.58;;;22.10;70.10;;;;;;4940852;28;89211;-93
2023/05/08 10:14:58;;;;;;;75.30;37.20;;;22.10;70.40;;;;;;4933713;28;87513;-92
2023/05/08 10:18:04;;;;;;;83.43;41.43;;;22.10;70.60;;;;;;4935307;28;86766;-89
2023/05/08 10:20:31;;;;;;;76.00;38.65;;;22.20;70.60;;;;;;4934267;28;91929;-91
2023/05/08 10:23:06;;;;;;;75.13;38.60;;;22.20;70.30;;;;;;4932670;28;88005;-91
2023/05/08 10:25:35;;;;;;;67.07;34.13;;;22.30;70.30;;;;;;4934077;28;88269;-94
2023/05/08 10:28:17;;;;;;;75.93;35.05;;;22.20;70.30;;;;;;4932029;28;85880;-91
2023/05/08 10:30:47;;;;;;;66.47;33.67;;;22.20;70.30;;;;;;4933324;28;87247;-93
2023/05/08 10:33:15;;;;;;;69.70;31.83;;;22.30;70.50;;;;;;4935245;28;88190;-93
2023/05/08 10:35:41;;;;;;;69.45;33.88;;;22.20;70.40;;;;;;4953157;28;89105;-93
2023/05/08 10:38:10;;;;;;;57.15;30.23;;;22.30;70.10;;;;;;4935243;28;86755;-93
2023/05/08 10:40:37;;;;;;;70.40;33.15;;;22.30;70.20;;;;;;4935182;28;85776;-92
2023/05/08 10:43:04;;;;;;;46.53;25.95;;;22.30;70.60;;;;;;4936771;28;88797;-94
2023/05/08 10:45:33;;;;;;;64.95;32.85;;;22.40;68.10;;;;;;4935945;28;88630;-95
2023/05/08 10:48:23;;;;;;;61.33;32.35;;;22.50;69.70;;;;;;4953216;28;86502;-93
2023/05/08 10:51:06;;;;;;;70.57;32.05;;;22.40;70.40;;;;;;4935626;28;85675;-95
2023/05/08 10:53:53;;;;;;;58.58;32.65;;;22.40;70.50;;;;;;4952630;28;90090;-92
2023/05/08 10:56:26;;;;;;;62.13;32.47;;;22.30;71.20;;;;;;4937275;28;92514;-92
2023/05/08 10:58:56;;;;;;;63.95;32.22;;;22.40;71.00;;;;;;4935490;28;87030;-92
2023/05/08 11:01:22;;;;;;;60.55;32.78;;;22.40;71.20;;;;;;4934573;28;85793;-91
2023/05/08 11:03:51;;;;;;;63.58;34.17;;;22.40;71.30;;;;;;4952162;28;87371;-92
2023/05/08 11:06:37;;;;;;;51.88;29.25;;;22.40;71.60;;;;;;4952154;28;89412;-92
2023/05/08 11:09:03;;;;;;;57.97;29.95;;;22.40;71.20;;;;;;4951517;28;86056;-92
2023/05/08 11:11:37;;;;;;;51.38;29.20;;;22.40;71.20;;;;;;4937263;28;86391;-91
2023/05/08 11:14:15;;;;;;;57.55;31.75;;;22.40;71.20;;;;;;4951053;28;90460;-94
2023/05/08 11:16:53;;;;;;;58.00;32.25;;;22.40;71.20;;;;;;4950388;28;89695;-91
2023/05/08 11:19:25;;;;;;;59.80;31.55;;;22.40;71.60;;;;;;4950089;28;86380;-91
2023/05/08 11:22:12;;;;;;;62.20;31.63;;;22.40;71.80;;;;;;4949608;28;86344;-92
2023/05/08 11:24:54;;;;;;;60.03;32.72;;;22.40;71.90;;;;;;4942185;28;89139;-93
2023/05/08 11:27:37;;;;;;;61.75;31.48;;;22.40;72.20;;;;;;4934198;28;89197;-93
2023/05/08 11:30:38;;;;;;;62.47;31.42;;;22.40;72.30;;;;;;4937071;28;85837;-94
2023/05/08 11:33:03;;;;;;;51.72;27.55;;;22.40;71.60;;;;;;4943243;28;87041;-93
2023/05/08 11:35:49;;;;;;;52.28;27.25;;;22.50;71.10;;;;;;4949630;28;89432;-92
2023/05/08 11:38:35;;;;;;;47.28;27.13;;;22.40;70.80;;;;;;4944312;28;93655;-95
2023/05/08 11:41:05;;;;;;;51.40;26.50;;;22.50;70.80;;;;;;4945081;28;85956;-95
2023/05/08 11:43:36;;;;;;;49.20;24.85;;;22.50;70.20;;;;;;4952994;28;85694;-92
2023/05/08 11:46:15;;;;;;;51.35;27.30;;;22.50;70.20;;;;;;4943726;28;90297;-92
2023/05/08 11:48:42;;;;;;;50.72;27.60;;;22.50;70.20;;;;;;4935739;28;89348;-94
2023/05/08 11:51:08;;;;;;;47.63;27.55;;;22.50;71.20;;;;;;4923945;28;85639;-93
2023/05/08 11:53:38;;;;;;;47.45;26.92;;;22.50;71.30;;;;;;4935632;28;85740;-94
2023/05/08 11:56:07;;;;;;;50.67;28.45;;;22.50;71.40;;;;;;4951138;28;89096;-94
2023/05/08 11:58:33;;;;;;;54.15;26.95;;;22.50;71.90;;;;;;4949004;28;89532;-96
2023/05/08 12:00:59;;;;;;;48.22;27.08;;;22.50;71.90;;;;;;4923725;28;85923;-95
2023/05/08 12:03:24;;;;;;;44.78;26.80;;;22.50;71.90;;;;;;4920883;28;86859;-94
2023/05/08 12:05:54;;;;;;;47.83;25.95;;;22.50;72.00;;;;;;4906463;28;90141;-93
2023/05/08 12:08:19;;;;;;;49.22;25.30;;;22.50;72.00;;;;;;4942161;28;87581;-93
2023/05/08 12:10:45;;;;;;;50.30;26.40;;;22.50;72.00;;;;;;4933535;28;85830;-91
2023/05/08 12:13:24;;;;;;;45.22;26.95;;;22.50;72.30;;;;;;4948004;28;86476;-93
2023/05/08 12:15:57;;;;;;;47.63;26.52;;;22.60;71.80;;;;;;4933230;28;87903;-94
2023/05/08 12:18:25;;;;;;;46.53;25.45;;;22.60;72.00;;;;;;4949776;28;89364;-93
2023/05/08 12:20:59;;;;;;;43.20;25.63;;;22.50;72.00;;;;;;4948961;28;86265;-94
2023/05/08 12:23:28;;;;;;;49.60;27.08;;;22.50;72.00;;;;;;4950700;28;86642;-92
2023/05/08 12:25:57;;;;;;;43.08;24.70;;;22.50;72.00;;;;;;4947886;28;88135;-95
2023/05/08 12:28:23;;;;;;;;;;;22.50;72.10;;;;;;4947653;28;89917;-91
2023/05/08 12:30:49;;;;;;;40.20;23.75;;;22.50;72.10;;;;;;4933132;28;86807;-91
2023/05/08 12:33:18;;;;;;;39.75;22.80;;;22.50;72.00;;;;;;4946736;28;85904;-92
2023/05/08 12:35:44;;;;;;;;;;;22.50;71.90;;;;;;4940687;28;88633;-91
2023/05/08 12:38:10;;;;;;;40.40;24.10;;;22.50;72.00;;;;;;4935123;28;89737;-90
2023/05/08 12:40:51;;;;;;;40.40;24.40;;;22.50;71.90;;;;;;4935320;28;87836;-91
2023/05/08 12:43:17;;;;;;;42.08;24.42;;;22.50;71.90;;;;;;4938196;28;85923;-91
2023/05/08 12:45:43;;;;;;;36.10;21.35;;;22.50;71.80;;;;;;4950067;28;90129;-91
2023/05/08 12:48:16;;;;;;;36.35;22.13;;;22.60;71.60;;;;;;4936618;28;88521;-95
2023/05/08 12:50:44;;;;;;;34.55;21.55;;;22.60;71.40;;;;;;4939716;28;85898;-94